createdAt,value
2023-03-29T00:00:14.481Z,3.59
2023-03-29T00:02:43.581Z,3.57
2023-03-29T00:05:13.197Z,3.56
2023-03-29T00:07:42.469Z,3.55
2023-03-29T00:10:12.676Z,3.56
2023-03-29T00:12:41.844Z,3.59
2023-03-29T00:15:11.432Z,3.61
2023-03-29T00:17:40.357Z,3.64
2023-03-29T00:20:10.345Z,3.65
2023-03-29T00:22:42.004Z,3.64
2023-03-29T00:25:11.134Z,3.64
2023-03-29T00:27:40.248Z,3.62
2023-03-29T00:30:10.040Z,3.60
2023-03-29T00:32:39.271Z,3.59
2023-03-29T00:35:09.040Z,3.56
2023-03-29T00:37:40.806Z,3.54
2023-03-29T00:40:15.833Z,3.50
2023-03-29T00:42:50.445Z,3.46
2023-03-29T00:45:22.702Z,3.38
2023-03-29T00:47:52.716Z,3.40
2023-03-29T00:50:25.755Z,3.36
2023-03-29T00:52:56.209Z,3.33
2023-03-29T00:55:25.418Z,3.30
2023-03-29T00:57:55.677Z,3.26
2023-03-29T01:00:26.641Z,3.22
2023-03-29T01:02:59.616Z,3.18
2023-03-29T01:05:30.933Z,3.15
2023-03-29T01:08:00.621Z,3.11
2023-03-29T01:10:31.027Z,3.07
2023-03-29T01:13:01.490Z,3.03
2023-03-29T01:15:30.319Z,3.01
2023-03-29T01:18:01.863Z,3.00
2023-03-29T01:20:38.730Z,2.98
2023-03-29T01:23:13.885Z,2.97
2023-03-29T01:25:45.419Z,2.96
2023-03-29T01:28:14.536Z,2.95
2023-03-29T01:30:44.000Z,2.91
2023-03-29T01:33:13.304Z,2.91
2023-03-29T01:35:43.565Z,2.87
2023-03-29T01:38:13.610Z,2.84
2023-03-29T01:40:42.442Z,2.81
2023-03-29T01:43:14.952Z,2.79
2023-03-29T01:45:44.482Z,2.78
2023-03-29T01:48:14.955Z,2.77
2023-03-29T01:50:44.496Z,2.76
2023-03-29T01:53:15.221Z,2.75
2023-03-29T01:55:44.352Z,2.74
2023-03-29T01:58:13.375Z,2.72
2023-03-29T02:00:42.278Z,2.72
2023-03-29T02:03:11.508Z,2.70
2023-03-29T02:05:41.034Z,2.67
2023-03-29T02:08:10.902Z,2.69
2023-03-29T02:10:39.667Z,2.68
2023-03-29T02:13:08.580Z,2.67
2023-03-29T02:15:37.368Z,2.64
2023-03-29T02:18:06.815Z,2.66
2023-03-29T02:20:38.740Z,2.65
2023-03-29T02:23:08.832Z,2.64
2023-03-29T02:25:38.520Z,2.64
2023-03-29T02:28:07.286Z,2.64
2023-03-29T02:30:37.131Z,2.67
2023-03-29T02:33:07.797Z,2.70
2023-03-29T02:35:38.520Z,2.75
2023-03-29T02:38:10.444Z,2.81
2023-03-29T02:40:40.190Z,2.87
2023-03-29T02:43:09.873Z,2.92
2023-03-29T02:45:38.987Z,2.95
2023-03-29T02:48:09.200Z,2.97
2023-03-29T02:50:38.319Z,3.01
2023-03-29T02:53:08.755Z,3.04
2023-03-29T02:55:38.985Z,3.06
2023-03-29T02:58:08.465Z,3.08
2023-03-29T03:00:38.307Z,3.09
2023-03-29T03:03:07.980Z,3.08
2023-03-29T03:05:37.421Z,3.08
2023-03-29T03:08:08.247Z,3.07
2023-03-29T03:10:37.199Z,3.06
2023-03-29T03:13:06.130Z,3.04
2023-03-29T03:15:35.785Z,3.03
2023-03-29T03:18:04.914Z,3.02
2023-03-29T03:20:34.713Z,2.99
2023-03-29T03:23:04.096Z,2.94
2023-03-29T03:25:33.054Z,2.93
2023-03-29T03:28:02.511Z,2.90
2023-03-29T03:30:31.549Z,2.87
2023-03-29T03:33:19.230Z,2.84
2023-03-29T03:36:17.079Z,2.83
2023-03-29T03:38:46.112Z,2.81
2023-03-29T03:41:14.950Z,2.80
2023-03-29T03:43:45.994Z,2.77
2023-03-29T03:46:15.210Z,2.74
2023-03-29T03:48:45.353Z,2.70
2023-03-29T03:51:29.242Z,2.64
2023-03-29T03:53:58.027Z,2.59
2023-03-29T03:56:36.208Z,2.53
2023-03-29T03:59:13.187Z,2.49
2023-03-29T04:02:02.323Z,2.47
2023-03-29T04:04:31.302Z,2.47
2023-03-29T04:07:05.899Z,2.49
2023-03-29T04:09:42.186Z,2.50
2023-03-29T04:12:22.031Z,2.51
2023-03-29T04:14:51.680Z,2.53
2023-03-29T04:17:24.296Z,2.54
2023-03-29T04:20:13.730Z,2.56
2023-03-29T04:22:42.921Z,2.59
2023-03-29T04:25:12.203Z,2.66
2023-03-29T04:27:49.983Z,2.74
2023-03-29T04:30:35.663Z,2.81
2023-03-29T04:33:33.551Z,2.90
2023-03-29T04:36:03.231Z,2.97
2023-03-29T04:38:36.085Z,3.03
2023-03-29T04:41:05.769Z,3.09
2023-03-29T04:43:47.612Z,3.13
2023-03-29T04:46:25.497Z,3.15
2023-03-29T04:49:32.920Z,3.16
2023-03-29T04:52:01.956Z,3.17
2023-03-29T04:54:32.232Z,3.18
2023-03-29T04:57:23.958Z,3.18
2023-03-29T05:00:15.558Z,3.18
2023-03-29T05:02:59.511Z,3.18
2023-03-29T05:05:29.020Z,3.18
2023-03-29T05:14:10.878Z,3.20
2023-03-29T05:22:36.316Z,3.17
2023-03-29T05:25:06.023Z,3.15
2023-03-29T05:27:35.018Z,3.17
2023-03-29T05:30:11.693Z,3.19
2023-03-29T05:32:52.803Z,3.22
2023-03-29T05:35:26.294Z,3.24
2023-03-29T05:37:56.233Z,3.31
2023-03-29T05:40:26.197Z,3.35
2023-03-29T05:43:15.429Z,3.41
2023-03-29T05:45:44.420Z,3.47
2023-03-29T05:48:13.776Z,3.53
2023-03-29T05:50:46.179Z,3.59
2023-03-29T05:53:15.376Z,3.66
2023-03-29T05:55:45.326Z,3.74
2023-03-29T05:58:15.575Z,3.82
2023-03-29T06:00:49.777Z,3.93
2023-03-29T06:03:31.120Z,4.04
2023-03-29T06:06:02.282Z,4.17
2023-03-29T06:08:31.551Z,4.33
2023-03-29T06:11:17.577Z,4.52
2023-03-29T06:14:09.098Z,4.69
2023-03-29T06:16:43.188Z,4.83
2023-03-29T06:19:12.637Z,4.99
2023-03-29T06:21:42.123Z,5.21
2023-03-29T06:24:11.857Z,5.40
2023-03-29T06:26:46.376Z,5.60
2023-03-29T06:29:15.627Z,5.73
2023-03-29T06:31:45.396Z,5.81
2023-03-29T06:34:28.156Z,5.88
2023-03-29T06:37:24.600Z,5.92
2023-03-29T06:40:01.046Z,5.92
2023-03-29T06:42:36.902Z,5.94
2023-03-29T06:45:40.833Z,5.94
2023-03-29T06:48:15.151Z,5.99
2023-03-29T06:50:44.004Z,6.02
2023-03-29T06:53:16.886Z,6.04
2023-03-29T06:55:48.541Z,6.09
2023-03-29T06:58:40.743Z,6.10
2023-03-29T07:01:38.847Z,6.11
2023-03-29T07:04:15.748Z,6.10
2023-03-29T07:07:05.992Z,6.11
2023-03-29T07:09:36.442Z,6.10
2023-03-29T07:12:26.338Z,6.10
2023-03-29T07:14:58.391Z,6.18
2023-03-29T07:17:30.967Z,6.23
2023-03-29T07:19:59.751Z,6.24
2023-03-29T07:22:47.196Z,6.32
2023-03-29T07:25:17.147Z,6.41
2023-03-29T07:27:46.389Z,6.52
2023-03-29T07:30:16.528Z,6.71
2023-03-29T07:32:46.398Z,6.87
2023-03-29T07:35:27.257Z,6.97
2023-03-29T07:37:57.227Z,7.02
2023-03-29T07:40:27.111Z,7.06
2023-03-29T07:42:58.715Z,7.12
2023-03-29T07:45:29.631Z,7.17
2023-03-29T07:48:03.349Z,7.16
2023-03-29T07:50:46.698Z,7.14
2023-03-29T07:53:17.268Z,7.12
2023-03-29T07:55:49.055Z,7.17
2023-03-29T07:58:36.464Z,7.19
2023-03-29T08:01:06.202Z,7.20
2023-03-29T08:03:53.873Z,7.21
2023-03-29T08:06:26.529Z,7.24
2023-03-29T08:08:55.748Z,7.19
2023-03-29T08:11:24.589Z,7.24
2023-03-29T08:14:05.146Z,7.28
2023-03-29T08:16:57.169Z,7.37
2023-03-29T08:19:26.188Z,7.49
2023-03-29T08:22:02.862Z,7.60
2023-03-29T08:24:40.757Z,7.70
2023-03-29T08:27:09.834Z,7.83
2023-03-29T08:29:38.635Z,7.98
2023-03-29T08:32:07.955Z,8.20
2023-03-29T08:34:36.942Z,8.42
2023-03-29T08:37:18.022Z,8.59
2023-03-29T08:39:48.623Z,8.68
2023-03-29T08:42:50.254Z,8.83
2023-03-29T08:45:21.142Z,8.99
2023-03-29T08:47:51.618Z,9.16
2023-03-29T08:50:21.550Z,9.36
2023-03-29T08:52:51.517Z,9.59
2023-03-29T08:55:44.444Z,9.83
2023-03-29T08:58:41.930Z,9.97
2023-03-29T09:01:11.426Z,10.10
2023-03-29T09:03:51.763Z,10.16
2023-03-29T09:06:30.051Z,10.18
2023-03-29T09:09:07.895Z,10.14
2023-03-29T09:11:40.652Z,10.05
2023-03-29T09:14:13.845Z,9.97
2023-03-29T09:16:44.947Z,9.87
2023-03-29T09:19:16.842Z,9.75
2023-03-29T09:21:47.455Z,9.71
2023-03-29T09:24:29.974Z,9.70
2023-03-29T09:27:08.499Z,9.68
2023-03-29T09:29:45.047Z,9.63
2023-03-29T09:32:17.743Z,9.59
2023-03-29T09:34:48.498Z,9.58
2023-03-29T09:37:22.523Z,9.59
2023-03-29T09:39:53.150Z,9.63
2023-03-29T09:42:22.568Z,9.77
2023-03-29T09:44:52.612Z,10.01
2023-03-29T09:47:26.229Z,10.31
2023-03-29T09:49:56.956Z,10.64
2023-03-29T09:52:25.786Z,10.96
2023-03-29T09:55:05.815Z,11.27
2023-03-29T09:57:52.870Z,11.46
2023-03-29T10:00:22.370Z,11.58
2023-03-29T10:02:54.627Z,11.59
2023-03-29T10:05:27.319Z,11.54
2023-03-29T10:07:56.153Z,11.55
2023-03-29T10:10:26.359Z,11.67
2023-03-29T10:12:55.554Z,11.82
2023-03-29T10:15:29.680Z,11.91
2023-03-29T10:18:00.340Z,12.02
2023-03-29T10:20:29.281Z,12.09
2023-03-29T10:22:59.034Z,12.11
2023-03-29T10:25:28.705Z,11.97
2023-03-29T10:27:58.071Z,11.83
2023-03-29T10:30:28.309Z,11.73
2023-03-29T10:32:58.882Z,11.52
2023-03-29T10:35:30.737Z,11.36
2023-03-29T10:38:00.110Z,11.30
2023-03-29T10:40:30.648Z,11.27
2023-03-29T10:43:03.114Z,11.16
2023-03-29T10:45:32.956Z,11.08
2023-03-29T10:48:01.832Z,11.11
2023-03-29T10:50:34.569Z,11.16
2023-03-29T10:53:04.172Z,11.26
2023-03-29T10:55:34.907Z,11.37
2023-03-29T10:58:06.462Z,11.52
2023-03-29T11:00:37.835Z,11.65
2023-03-29T11:03:11.614Z,11.76
2023-03-29T11:05:42.322Z,11.86
2023-03-29T11:08:15.861Z,11.95
2023-03-29T11:10:46.726Z,12.04
2023-03-29T11:13:17.690Z,12.11
2023-03-29T11:15:50.688Z,12.25
2023-03-29T11:18:33.084Z,12.49
2023-03-29T11:21:04.567Z,12.75
2023-03-29T11:23:39.858Z,12.98
2023-03-29T11:26:12.550Z,13.04
2023-03-29T11:28:42.253Z,13.13
2023-03-29T11:31:13.274Z,13.25
2023-03-29T11:33:46.697Z,13.44
2023-03-29T11:36:18.430Z,13.58
2023-03-29T11:38:51.485Z,13.75
2023-03-29T11:41:23.327Z,13.98
2023-03-29T11:43:54.973Z,14.21
2023-03-29T11:46:24.972Z,14.53
2023-03-29T11:48:55.478Z,14.87
2023-03-29T11:51:25.097Z,15.62
2023-03-29T11:53:57.273Z,16.10
2023-03-29T11:56:29.402Z,16.24
2023-03-29T11:59:01.289Z,16.06
2023-03-29T12:01:31.570Z,15.79
2023-03-29T12:04:01.696Z,15.49
2023-03-29T12:06:32.494Z,15.24
2023-03-29T12:09:02.439Z,15.06
2023-03-29T12:11:31.934Z,14.94
2023-03-29T12:14:02.512Z,14.80
2023-03-29T12:16:33.689Z,14.77
2023-03-29T12:19:04.215Z,15.03
2023-03-29T12:21:33.032Z,15.32
2023-03-29T12:24:02.272Z,15.70
2023-03-29T12:26:45.887Z,16.26
2023-03-29T12:29:19.158Z,16.17
2023-03-29T12:31:49.436Z,15.93
2023-03-29T12:34:22.223Z,15.74
2023-03-29T12:37:12.187Z,15.47
2023-03-29T12:40:04.161Z,15.09
2023-03-29T12:42:52.720Z,14.68
2023-03-29T12:45:48.583Z,14.39
2023-03-29T12:48:18.709Z,14.49
2023-03-29T12:50:49.354Z,14.95
2023-03-29T12:53:20.983Z,15.37
2023-03-29T12:55:51.526Z,15.68
2023-03-29T12:58:26.537Z,16.09
2023-03-29T13:01:05.954Z,16.39
2023-03-29T13:03:42.553Z,16.74
2023-03-29T13:06:13.266Z,16.98
2023-03-29T13:08:43.259Z,16.96
2023-03-29T13:11:14.954Z,16.82
2023-03-29T13:13:44.159Z,16.56
2023-03-29T13:16:16.438Z,16.21
2023-03-29T13:22:47.874Z,15.55
2023-03-29T13:25:19.873Z,15.30
2023-03-29T13:27:50.484Z,15.03
2023-03-29T13:30:33.128Z,14.85
2023-03-29T13:33:15.335Z,14.72
2023-03-29T13:35:46.837Z,14.76
2023-03-29T13:38:18.557Z,14.90
2023-03-29T13:40:48.520Z,14.96
2023-03-29T13:43:25.535Z,14.99
2023-03-29T13:46:05.847Z,15.04
2023-03-29T13:48:45.385Z,15.16
2023-03-29T13:51:22.357Z,15.36
2023-03-29T13:53:52.558Z,16.03
2023-03-29T13:56:24.610Z,16.94
2023-03-29T13:58:54.490Z,17.46
2023-03-29T14:01:24.727Z,17.54
2023-03-29T14:03:53.861Z,17.27
2023-03-29T14:06:24.530Z,16.84
2023-03-29T14:08:53.445Z,16.39
2023-03-29T14:11:23.275Z,15.95
2023-03-29T14:13:54.566Z,15.72
2023-03-29T14:16:23.558Z,15.64
2023-03-29T14:18:52.837Z,15.45
2023-03-29T14:21:21.961Z,15.28
2023-03-29T14:23:55.185Z,15.18
2023-03-29T14:26:24.688Z,15.10
2023-03-29T14:28:54.036Z,14.91
2023-03-29T14:31:23.677Z,14.77
2023-03-29T14:33:54.357Z,14.65
2023-03-29T14:36:23.505Z,14.66
2023-03-29T14:38:53.261Z,14.69
2023-03-29T14:41:24.283Z,14.66
2023-03-29T14:43:53.340Z,14.69
2023-03-29T14:46:22.290Z,14.77
2023-03-29T14:48:51.183Z,14.74
2023-03-29T14:51:20.420Z,14.76
2023-03-29T14:53:49.372Z,14.86
2023-03-29T14:56:24.030Z,14.87
2023-03-29T14:58:54.027Z,14.90
2023-03-29T15:01:23.896Z,15.01
2023-03-29T15:03:54.945Z,15.02
2023-03-29T15:06:24.753Z,14.90
2023-03-29T15:09:04.355Z,14.78
2023-03-29T15:11:35.109Z,14.68
2023-03-29T15:14:05.266Z,14.66
2023-03-29T15:16:36.496Z,14.66
2023-03-29T15:19:05.826Z,14.73
2023-03-29T15:21:35.874Z,14.79
2023-03-29T15:24:19.070Z,14.84
2023-03-29T15:26:59.650Z,14.89
2023-03-29T15:29:38.468Z,15.01
2023-03-29T15:32:07.975Z,15.10
2023-03-29T15:34:40.195Z,15.17
2023-03-29T15:37:12.278Z,15.32
2023-03-29T15:39:45.476Z,15.34
2023-03-29T15:42:15.815Z,15.31
2023-03-29T15:44:47.249Z,15.27
2023-03-29T15:47:16.002Z,15.16
2023-03-29T15:49:44.855Z,15.07
2023-03-29T15:52:13.792Z,14.97
2023-03-29T15:54:43.981Z,14.86
2023-03-29T15:57:13.945Z,14.77
2023-03-29T15:59:43.053Z,14.71
2023-03-29T16:02:13.963Z,14.64
2023-03-29T16:04:42.810Z,14.55
2023-03-29T16:07:14.262Z,14.46
2023-03-29T16:09:43.277Z,14.35
2023-03-29T16:12:12.270Z,14.25
2023-03-29T16:14:43.023Z,14.17
2023-03-29T16:17:16.094Z,14.13
2023-03-29T16:19:45.301Z,14.10
2023-03-29T16:22:14.334Z,14.07
2023-03-29T16:24:43.858Z,14.05
2023-03-29T16:27:12.762Z,13.98
2023-03-29T16:29:41.697Z,13.91
2023-03-29T16:32:11.722Z,13.85
2023-03-29T16:34:41.520Z,13.77
2023-03-29T16:37:10.970Z,13.70
2023-03-29T16:39:40.129Z,13.61
2023-03-29T16:42:09.554Z,13.53
2023-03-29T16:44:39.213Z,13.48
2023-03-29T16:47:08.088Z,13.44
2023-03-29T16:49:39.931Z,13.38
2023-03-29T16:52:11.545Z,13.32
2023-03-29T16:54:40.485Z,13.26
2023-03-29T16:57:10.245Z,13.21
2023-03-29T16:59:39.142Z,13.16
2023-03-29T17:02:08.005Z,13.09
2023-03-29T17:04:37.159Z,13.04
2023-03-29T17:07:06.743Z,13.00
2023-03-29T17:09:35.735Z,12.95
2023-03-29T17:12:04.936Z,12.91
2023-03-29T17:14:34.000Z,12.86
2023-03-29T17:17:02.776Z,12.80
2023-03-29T17:19:31.820Z,12.76
2023-03-29T17:22:00.790Z,12.73
2023-03-29T17:24:30.752Z,12.66
2023-03-29T17:26:59.562Z,12.64
2023-03-29T17:29:28.504Z,12.64
2023-03-29T17:31:57.291Z,12.64
2023-03-29T17:34:28.840Z,12.64
2023-03-29T17:36:57.746Z,12.59
2023-03-29T17:39:27.209Z,12.58
2023-03-29T17:41:56.040Z,12.52
2023-03-29T17:44:25.074Z,12.47
2023-03-29T17:46:54.057Z,12.38
2023-03-29T17:49:23.211Z,12.30
2023-03-29T17:51:52.029Z,12.22
2023-03-29T17:54:21.608Z,12.14
2023-03-29T17:56:50.573Z,12.08
2023-03-29T17:59:19.638Z,12.01
2023-03-29T18:01:48.400Z,11.94
2023-03-29T18:04:17.587Z,11.84
2023-03-29T18:06:46.675Z,11.78
2023-03-29T18:09:15.475Z,11.69
2023-03-29T18:11:44.268Z,11.61
2023-03-29T18:14:13.133Z,11.51
2023-03-29T18:16:42.381Z,11.42
2023-03-29T18:19:13.539Z,11.33
2023-03-29T18:21:42.304Z,11.27
2023-03-29T18:24:11.090Z,11.13
2023-03-29T18:26:40.325Z,11.20
2023-03-29T18:29:09.929Z,11.20
2023-03-29T18:31:40.577Z,11.21
2023-03-29T18:34:09.570Z,11.20
2023-03-29T18:36:38.501Z,11.22
2023-03-29T18:39:07.465Z,11.23
2023-03-29T18:41:37.170Z,11.23
2023-03-29T18:44:07.482Z,11.22
2023-03-29T18:46:36.360Z,11.21
2023-03-29T18:49:05.251Z,11.20
2023-03-29T18:51:34.840Z,11.19
2023-03-29T18:54:06.386Z,11.17
2023-03-29T18:56:35.384Z,11.15
2023-03-29T18:59:06.318Z,11.12
2023-03-29T19:01:35.915Z,11.08
2023-03-29T19:04:05.250Z,11.04
2023-03-29T19:06:34.014Z,11.00
2023-03-29T19:09:05.223Z,10.89
2023-03-29T19:11:36.052Z,10.89
2023-03-29T19:14:08.330Z,10.84
2023-03-29T19:16:37.660Z,10.77
2023-03-29T19:19:07.182Z,10.66
2023-03-29T19:21:38.491Z,10.64
2023-03-29T19:24:09.244Z,10.57
2023-03-29T19:26:41.877Z,10.50
2023-03-29T19:29:10.714Z,10.44
2023-03-29T19:31:39.807Z,10.37
2023-03-29T19:34:09.877Z,10.31
2023-03-29T19:36:38.636Z,10.26
2023-03-29T19:39:08.119Z,10.24
2023-03-29T19:41:36.982Z,10.24
2023-03-29T19:44:06.708Z,10.26
2023-03-29T19:46:35.703Z,10.28
2023-03-29T19:49:05.820Z,10.30
2023-03-29T19:51:35.008Z,10.31
2023-03-29T19:54:03.713Z,10.31
2023-03-29T19:56:33.039Z,10.30
2023-03-29T19:59:01.984Z,10.29
2023-03-29T20:01:32.359Z,10.28
2023-03-29T20:04:01.697Z,10.24
2023-03-29T20:06:30.724Z,10.21
2023-03-29T20:08:59.471Z,10.19
2023-03-29T20:11:28.910Z,10.17
2023-03-29T20:13:58.170Z,10.14
2023-03-29T20:16:27.142Z,10.10
2023-03-29T20:18:59.241Z,10.05
2023-03-29T20:21:28.644Z,9.98
2023-03-29T20:23:57.601Z,9.90
2023-03-29T20:26:28.180Z,9.89
2023-03-29T20:28:57.537Z,9.84
2023-03-29T20:31:27.346Z,9.79
2023-03-29T20:33:57.987Z,9.75
2023-03-29T20:36:30.532Z,9.73
2023-03-29T20:39:00.226Z,9.74
2023-03-29T20:41:29.386Z,9.79
2023-03-29T20:44:00.054Z,9.83
2023-03-29T20:46:33.439Z,9.89
2023-03-29T20:49:03.094Z,9.94
2023-03-29T20:51:32.421Z,10.00
2023-03-29T20:54:04.450Z,10.04
2023-03-29T20:56:34.383Z,10.06
2023-03-29T20:59:04.061Z,10.07
2023-03-29T21:01:34.811Z,10.08
2023-03-29T21:04:03.833Z,10.06
2023-03-29T21:06:33.433Z,10.04
2023-03-29T21:09:04.952Z,10.05
2023-03-29T21:11:33.798Z,10.06
2023-03-29T21:14:04.095Z,10.08
2023-03-29T21:16:33.898Z,10.09
2023-03-29T21:19:03.062Z,10.08
2023-03-29T21:21:33.706Z,10.08
2023-03-29T21:24:02.643Z,10.07
2023-03-29T21:26:31.484Z,10.07
2023-03-29T21:29:00.366Z,10.06
2023-03-29T21:31:29.283Z,10.06
2023-03-29T21:33:58.407Z,10.05
2023-03-29T21:36:32.758Z,10.06
2023-03-29T21:39:05.940Z,10.05
2023-03-29T21:41:34.816Z,10.05
2023-03-29T21:44:03.789Z,10.03
2023-03-29T21:46:32.971Z,10.04
2023-03-29T21:49:01.779Z,10.02
2023-03-29T21:51:32.763Z,9.99
2023-03-29T21:54:02.221Z,10.00
2023-03-29T21:56:31.802Z,9.98
2023-03-29T21:59:00.652Z,9.96
2023-03-29T22:01:29.815Z,9.94
2023-03-29T22:04:04.641Z,9.92
2023-03-29T22:06:33.555Z,9.90
2023-03-29T22:09:03.040Z,9.86
2023-03-29T22:11:35.471Z,9.81
2023-03-29T22:14:04.451Z,9.75
2023-03-29T22:16:33.613Z,9.72
2023-03-29T22:19:02.759Z,9.68
2023-03-29T22:21:32.224Z,9.60
2023-03-29T22:24:01.485Z,9.57
2023-03-29T22:26:30.915Z,9.54
2023-03-29T22:29:01.331Z,9.53
2023-03-29T22:31:31.285Z,9.51
2023-03-29T22:34:02.002Z,9.48
2023-03-29T22:36:31.892Z,9.43
2023-03-29T22:39:01.076Z,9.38
2023-03-29T22:41:29.897Z,9.32
2023-03-29T22:43:59.759Z,9.27
2023-03-29T22:46:29.273Z,9.19
2023-03-29T22:48:59.460Z,9.15
2023-03-29T22:51:29.370Z,9.10
2023-03-29T22:53:59.432Z,9.06
2023-03-29T22:56:31.629Z,9.03
2023-03-29T22:59:01.961Z,8.99
2023-03-29T23:01:32.559Z,8.98
2023-03-29T23:04:02.160Z,8.99
2023-03-29T23:06:32.397Z,9.01
2023-03-29T23:09:01.633Z,9.05
2023-03-29T23:11:30.931Z,9.12
2023-03-29T23:14:01.720Z,9.15
2023-03-29T23:16:30.811Z,9.18
2023-03-29T23:19:00.391Z,9.20
2023-03-29T23:21:29.146Z,9.18
2023-03-29T23:23:58.274Z,9.19
2023-03-29T23:26:27.698Z,9.19
2023-03-29T23:28:57.417Z,9.17
2023-03-29T23:31:26.289Z,9.16
2023-03-29T23:33:55.135Z,9.16
2023-03-29T23:36:27.311Z,9.16
2023-03-29T23:38:56.154Z,9.16
2023-03-29T23:41:28.234Z,9.16
2023-03-29T23:43:57.507Z,9.16
2023-03-29T23:46:26.470Z,9.16
2023-03-29T23:48:55.695Z,9.16
2023-03-29T23:51:28.913Z,9.14
2023-03-29T23:53:57.795Z,9.10
2023-03-29T23:56:26.681Z,9.09
2023-03-29T23:58:55.510Z,9.05
